Latest Weather Observations for Naracoorte

IDS60801

Issued at 4:11 pm CST Tuesday 20 April 2021 (issued every 10 minutes, with the page automatically refreshed every 10 minutes)

About weather observations | Map of weather stations | Latest weather observations for SA | Other Formats
Station Details ID: 026099 Name: NARACOORTE AERODROME Lat: -36.98 Lon: 140.73 Height: 49.72 m
Data from the previous 72 hours. | See also: Recent months at Naracoorte
Date/Time
CST
Temp
°C
App
Temp
°C
Dew
Point
°C
Rel
Hum
%
Delta-T
°C
Wind Press
QNH
hPa
Press
MSL
hPa
Rain since
9am
mm
Dir  Spd
km/h
Gust
km/h
Spd
kts
Gust
kts
20/04:00pm 13.9 7.4 2.8 47 4.9 SSW 26 35 14 19 1015.8 1015.8 0.8
20/03:30pm 14.4 6.6 2.6 45 5.2 S 33 41 18 22 1015.4 1015.4 0.8
20/03:00pm 14.8 7.7 3.3 46 5.2 S 30 41 16 22 1015.1 1015.1 0.8
20/02:30pm 13.8 5.8 3.6 50 4.6 S 35 48 19 26 1014.8 1014.8 0.8
20/02:00pm 14.3 6.9 4.0 50 4.7 S 32 39 17 21 1014.7 1014.7 0.8
20/01:30pm 14.7 7.7 5.8 55 4.2 S 32 41 17 22 1014.5 1014.5 0.8
20/01:00pm 13.6 6.1 4.5 54 4.2 SSW 33 48 18 26 1014.4 1014.4 0.8
20/12:30pm 14.9 7.9 7.0 59 3.9 S 33 43 18 23 1014.2 1014.2 0.8
20/12:00pm 13.2 6.9 9.6 79 1.8 SSW 33 39 18 21 1014.3 1014.3 0.8
20/11:40am 12.6 7.0 8.7 77 2.0 SSW 28 52 15 28 1014.3 1014.3 0.2
20/11:30am 14.0 9.2 9.0 72 2.5 S 24 33 13 18 1014.2 1014.2 0.0
20/11:00am 13.2 8.8 8.9 75 2.2 SSE 22 28 12 15 1014.3 1014.3 0.0
20/10:30am 12.6 8.5 10.0 84 1.3 S 22 28 12 15 1014.3 1014.3 0.0
20/10:00am 11.4 8.6 10.0 91 0.7 S 15 20 8 11 1013.9 1013.9 0.0
20/09:30am 10.6 6.9 9.4 92 0.6 S 19 24 10 13 1013.9 1013.9 0.0
20/09:00am 10.5 6.2 9.3 92 0.6 S 22 30 12 16 1013.4 1013.4 8.6
20/08:30am 11.2 7.7 10.3 94 0.5 SSW 19 24 10 13 1013.1 1013.1 7.6
20/08:00am 11.3 9.0 10.4 94 0.5 S 13 19 7 10 1012.0 1012.0 7.2
20/07:30am 11.3 10.1 10.4 94 0.5 SSE 7 13 4 7 1011.3 1011.3 6.0
20/07:00am 11.5 8.5 10.6 94 0.5 SSW 17 24 9 13 1011.6 1011.6 4.8
20/06:30am 11.3 6.3 9.6 89 0.9 NW 26 33 14 18 1011.2 1011.2 1.2
20/06:00am 11.3 7.2 8.5 83 1.4 NNW 20 24 11 13 1010.4 1010.4 0.0
20/05:30am 11.0 7.0 8.2 83 1.4 NNW 19 24 10 13 1010.6 1010.6 0.0
20/05:00am 11.2 7.2 8.1 81 1.5 NNW 19 24 10 13 1010.4 1010.4 0.0
20/04:30am 11.2 7.1 7.9 80 1.6 NNW 19 22 10 12 1010.5 1010.5 0.0
20/04:00am 11.8 7.6 8.3 79 1.7 NNW 20 24 11 13 1010.5 1010.5 0.0
20/03:30am 12.2 8.2 9.2 82 1.5 NNW 20 26 11 14 1010.7 1010.7 0.0
20/03:00am 12.6 8.7 9.6 82 1.5 NNW 20 30 11 16 1011.0 1011.0 0.0
20/02:30am 12.6 8.9 10.1 85 1.3 NNW 20 28 11 15 1011.3 1011.3 0.0
20/02:00am 12.7 9.2 10.2 85 1.3 NNW 19 26 10 14 1011.6 1011.6 0.0
20/01:30am 13.3 9.7 10.7 84 1.4 NNW 20 26 11 14 1011.9 1011.9 0.0
20/01:00am 13.6 10.1 11.0 84 1.4 NNW 20 30 11 16 1012.0 1012.0 0.0
20/12:30am 13.6 10.3 11.0 84 1.4 NNW 19 24 10 13 1012.4 1012.4 0.0
20/12:00am 14.0 10.5 11.0 82 1.6 NNW 20 28 11 15 1012.5 1012.5 0.0
 
Date/Time
CST
Temp
°C
App
Temp
°C
Dew
Point
°C
Rel
Hum
%
Delta-T
°C
Wind Press
QNH
hPa
Press
MSL
hPa
Rain since
9am
mm
Dir  Spd
km/h
Gust
km/h
Spd
kts
Gust
kts
19/11:30pm 14.1 10.9 11.1 82 1.6 NNW 19 26 10 14 1012.7 1012.7 0.0
19/11:00pm 14.0 10.7 11.0 82 1.6 NNW 19 24 10 13 1013.1 1013.1 0.0
19/10:30pm 14.0 11.0 10.8 81 1.7 NNW 17 20 9 11 1013.3 1013.3 0.0
19/10:00pm 13.8 11.5 10.4 80 1.8 N 13 17 7 9 1013.6 1013.6 0.0
19/09:30pm 14.3 11.6 10.3 77 2.1 NNW 15 20 8 11 1013.9 1013.9 0.0
19/09:00pm 14.1 11.7 9.9 76 2.2 NNW 13 19 7 10 1013.9 1013.9 0.0
19/08:30pm 14.6 12.7 10.4 76 2.2 N 11 15 6 8 1013.9 1013.9 0.0
19/08:00pm 15.0 12.0 10.6 75 2.3 NW 17 22 9 12 1014.1 1014.1 0.0
19/07:30pm 14.6 12.5 9.6 72 2.6 NNW 11 17 6 9 1014.3 1014.3 0.0
19/07:00pm 14.7 11.8 9.5 71 2.7 NW 15 17 8 9 1014.3 1014.3 0.0
19/06:30pm 15.9 12.6 9.6 66 3.3 NW 17 20 9 11 1014.3 1014.3 0.0
19/06:00pm 16.0 12.1 9.4 65 3.4 NW 20 30 11 16 1014.2 1014.2 0.0
19/05:30pm 15.9 10.8 10.7 71 2.8 WNW 28 37 15 20 1014.2 1014.2 0.0
19/05:00pm 17.3 12.4 8.4 56 4.6 WNW 24 32 13 17 1014.0 1014.0 0.0
19/04:30pm 17.6 12.2 7.9 53 4.9 NW 26 35 14 19 1014.1 1014.1 0.0
19/04:00pm 17.3 10.6 9.7 61 4.0 WNW 35 46 19 25 1014.3 1014.3 0.0
19/03:30pm 18.8 12.3 8.2 50 5.5 WNW 32 41 17 22 1014.0 1014.0 0.0
19/03:00pm 19.2 12.6 7.9 48 5.8 WNW 32 44 17 24 1014.0 1014.0 0.0
19/02:30pm 20.8 13.5 7.4 42 6.9 WNW 35 48 19 26 1014.1 1014.1 0.0
19/02:26pm 19.8 12.9 6.5 42 6.7 WNW 32 46 17 25 1014.1 1014.1 0.0
19/02:00pm 19.5 14.4 9.1 51 5.5 NNW 26 33 14 18 1014.3 1014.3 0.0
19/01:30pm 19.4 15.2 11.2 59 4.5 NNW 24 35 13 19 1014.6 1014.6 0.0
19/01:00pm 18.2 13.5 10.6 61 4.1 NW 26 35 14 19 1015.2 1015.2 0.0
19/12:30pm 19.2 12.9 9.1 52 5.3 NW 32 44 17 24 1015.5 1015.5 0.0
19/12:00pm 19.0 13.3 11.1 60 4.3 NW 32 46 17 25 1016.0 1016.0 0.0
19/11:30am 18.4 12.9 11.7 65 3.7 NW 32 43 17 23 1016.5 1016.5 0.0
19/11:00am 18.1 12.7 12.3 69 3.2 NW 32 43 17 23 1016.9 1016.8 0.0
19/10:30am 17.6 13.6 12.9 74 2.6 NNW 26 37 14 20 1017.1 1017.0 0.0
19/10:00am 16.7 12.6 12.8 78 2.2 NNW 26 35 14 19 1017.6 1017.5 0.0
19/09:30am 15.5 11.9 13.0 85 1.4 NNW 24 32 13 17 1017.8 1017.7 0.0
19/09:00am 14.8 12.1 12.8 88 1.1 N 19 24 10 13 1018.0 1017.9 1.2
19/08:30am 14.0 11.9 12.4 90 0.9 N 15 22 8 12 1018.2 1018.1 1.2
19/08:00am 13.5 11.3 12.1 91 0.8 NNW 15 20 8 11 1018.4 1018.3 1.2
19/07:30am 13.1 11.1 11.5 90 0.8 NNW 13 17 7 9 1018.1 1018.0 1.2
19/07:00am 12.8 10.0 11.2 90 0.8 N 17 20 9 11 1017.8 1017.7 1.2
19/06:30am 12.7 9.9 11.4 92 0.7 N 17 22 9 12 1017.6 1017.5 1.2
19/06:00am 12.7 9.7 11.8 94 0.5 N 19 26 10 14 1017.9 1017.8 1.2
19/05:30am 12.8 10.9 11.9 94 0.5 N 13 19 7 10 1018.0 1017.9 1.2
19/05:00am 12.7 11.2 11.8 94 0.5 N 11 17 6 9 1018.2 1018.1 1.2
19/04:30am 12.7 11.2 11.8 94 0.5 NNW 11 15 6 8 1018.2 1018.1 1.2
19/04:00am 12.7 11.2 11.8 94 0.5 NNW 11 13 6 7 1018.2 1018.1 1.2
19/03:30am 12.6 10.7 11.7 94 0.5 NNW 13 15 7 8 1018.4 1018.3 1.2
19/03:00am 12.4 10.4 11.6 95 0.4 NNW 13 17 7 9 1018.6 1018.5 1.2
19/02:30am 12.4 10.1 11.6 95 0.4 N 15 19 8 10 1018.9 1018.8 1.2
19/02:00am 12.4 10.4 11.5 94 0.5 NW 13 17 7 9 1019.6 1019.5 1.0
19/01:30am 12.5 11.2 11.4 93 0.6 NNW 9 15 5 8 1019.8 1019.7 0.2
19/01:00am 12.2 10.5 11.3 94 0.5 N 11 13 6 7 1019.8 1019.7 0.2
19/12:30am 12.3 10.3 11.4 94 0.5 NNW 13 17 7 9 1020.1 1020.0 0.2
19/12:00am 12.6 10.7 11.7 94 0.5 NNW 13 15 7 8 1020.2 1020.1 0.2
 
Date/Time
CST
Temp
°C
App
Temp
°C
Dew
Point
°C
Rel
Hum
%
Delta-T
°C
Wind Press
QNH
hPa
Press
MSL
hPa
Rain since
9am
mm
Dir  Spd
km/h
Gust
km/h
Spd
kts
Gust
kts
18/11:30pm 12.8 11.3 12.0 95 0.4 N 11 17 6 9 1020.4 1020.3 0.2
18/11:00pm 13.1 11.3 12.2 94 0.5 NNW 13 15 7 8 1020.7 1020.6 0.2
18/10:30pm 13.2 11.5 12.3 94 0.5 NNW 13 19 7 10 1021.1 1021.0 0.2
18/10:00pm 13.1 12.0 12.0 93 0.6 NNW 9 15 5 8 1021.3 1021.2 0.2
18/09:30pm 13.2 12.1 12.1 93 0.6 NNW 9 13 5 7 1021.4 1021.3 0.2
18/09:00pm 13.4 12.0 12.1 92 0.7 NNW 11 13 6 7 1021.4 1021.3 0.2
18/08:30pm 13.6 11.4 12.2 91 0.8 NW 15 19 8 10 1021.5 1021.4 0.2
18/08:00pm 14.4 12.4 11.6 83 1.5 NW 13 15 7 8 1021.6 1021.5 0.2
18/07:30pm 14.5 12.4 11.1 80 1.8 WNW 13 17 7 9 1021.9 1021.8 0.2
18/07:00pm 14.5 13.3 9.5 72 2.6 WNW 6 7 3 4 1021.9 1021.8 0.2
18/06:30pm 15.1 13.9 9.7 70 2.8 WSW 6 9 3 5 1021.8 1021.7 0.2
18/06:00pm 15.8 13.0 9.9 68 3.1 SW 15 19 8 10 1021.6 1021.5 0.2
18/05:30pm 15.9 11.7 9.8 67 3.2 SW 22 28 12 15 1021.7 1021.6 0.2
18/05:00pm 17.2 12.6 9.6 61 4.0 WSW 24 30 13 16 1021.4 1021.3 0.2
18/04:30pm 16.8 14.6 12.1 74 2.6 WNW 15 20 8 11 1021.4 1021.3 0.2
18/04:00pm 16.9 14.4 12.2 74 2.6 WNW 17 24 9 13 1021.4 1021.3 0.2
18/03:30pm 16.9 14.6 11.8 72 2.8 WNW 15 20 8 11 1021.5 1021.4 0.2
18/03:00pm 16.1 11.7 12.8 81 1.8 W 28 35 15 19 1021.8 1021.7 0.2
18/02:30pm 18.0 12.5 11.8 67 3.4 WNW 32 43 17 23 1021.4 1021.3 0.2
18/02:28pm 18.5 13.4 11.8 65 3.7 WNW 30 43 16 23 1021.4 1021.3 0.2
18/02:00pm 18.7 16.2 12.2 66 3.6 NW 17 24 9 13 1021.6 1021.5 0.0
18/01:30pm 16.8 15.1 13.7 82 1.7 W 15 20 8 11 1022.1 1022.0 0.0
18/01:00pm 15.0 10.1 12.7 86 1.3 W 30 43 16 23 1022.6 1022.5 0.0
18/12:56pm 15.5 11.5 11.7 78 2.1 WNW 24 43 13 23 1022.6 1022.5 0.0
18/12:30pm 16.2 12.4 12.4 78 2.1 WSW 24 33 13 18 1023.0 1022.9 0.0
18/12:00pm 16.7 11.9 11.8 73 2.7 W 28 43 15 23 1023.2 1023.1 0.0
18/11:58am 17.1 12.5 11.2 68 3.2 W 26 43 14 23 1023.2 1023.1 0.0
18/11:30am 18.6 14.5 10.2 58 4.5 WNW 22 28 12 15 1023.4 1023.3 0.0
18/11:00am 18.3 14.5 9.1 55 4.8 W 19 30 10 16 1023.6 1023.6 0.0
18/10:30am 17.5 13.9 10.4 63 3.8 WNW 20 26 11 14 1024.0 1024.0 0.0
18/10:00am 17.0 13.9 12.1 73 2.7 NW 20 28 11 15 1024.4 1024.4 0.0
18/09:30am 15.6 13.5 12.5 82 1.7 NNW 15 20 8 11 1024.6 1024.6 0.0
18/09:00am 14.1 12.4 12.3 89 1.0 NNW 13 19 7 10 1024.9 1024.9 0.4
18/08:30am 12.8 10.4 11.4 91 0.7 NNW 15 19 8 10 1025.0 1025.0 0.4
18/08:00am 11.8 10.0 10.7 93 0.6 NNW 11 15 6 8 1025.0 1025.0 0.4
18/07:30am 11.3 9.4 10.4 94 0.5 NNW 11 17 6 9 1024.8 1024.8 0.4
18/07:00am 10.7 8.6 9.9 95 0.4 N 11 13 6 7 1024.6 1024.6 0.4
18/06:30am 10.3 7.8 9.7 96 0.3 NNW 13 17 7 9 1024.5 1024.5 0.4
18/06:00am 9.9 7.7 9.3 96 0.3 NNW 11 15 6 8 1024.5 1024.5 0.4
18/05:30am 10.4 7.9 9.6 95 0.4 NNW 13 15 7 8 1024.5 1024.5 0.4
18/05:00am 10.7 8.3 9.9 95 0.4 N 13 17 7 9 1024.4 1024.4 0.4
18/04:30am 11.0 9.1 10.4 96 0.3 NNW 11 15 6 8 1024.5 1024.5 0.4
18/04:00am 11.0 9.5 10.4 96 0.3 NNW 9 13 5 7 1024.4 1024.4 0.4
18/03:30am 10.9 9.9 10.3 96 0.3 NNW 6 9 3 5 1024.4 1024.4 0.4
18/03:00am 10.9 9.7 10.3 96 0.3 N 7 9 4 5 1024.4 1024.4 0.4
18/02:30am 10.8 9.2 10.2 96 0.3 NW 9 13 5 7 1024.7 1024.7 0.4
18/02:00am 10.8 9.1 10.0 95 0.4 NNW 9 13 5 7 1024.8 1024.8 0.4
18/01:30am 11.0 9.0 10.2 95 0.4 NNW 11 13 6 7 1024.9 1024.9 0.4
18/01:00am 11.2 10.0 10.4 95 0.4 NNW 7 11 4 6 1025.3 1025.3 0.4
18/12:30am 11.2 9.7 10.4 95 0.4 NNW 9 13 5 7 1025.3 1025.3 0.4
18/12:00am 11.2 10.0 10.4 95 0.4 NNW 7 9 4 5 1025.4 1025.4 0.4
 
Date/Time
CST
Temp
°C
App
Temp
°C
Dew
Point
°C
Rel
Hum
%
Delta-T
°C
Wind Press
QNH
hPa
Press
MSL
hPa
Rain since
9am
mm
Dir  Spd
km/h
Gust
km/h
Spd
kts
Gust
kts
17/11:30pm 10.9 9.3 10.1 95 0.4 NNW 9 11 5 6 1025.7 1025.7 0.4
17/11:00pm 10.6 8.9 9.8 95 0.4 NNW 9 11 5 6 1025.8 1025.8 0.4
17/10:30pm 10.2 8.7 9.3 94 0.4 N 7 9 4 5 1026.1 1026.1 0.2
17/10:00pm 10.6 8.8 9.5 93 0.6 NNW 9 11 5 6 1026.2 1026.2 0.2
17/09:30pm 11.0 9.7 9.8 92 0.6 N 7 11 4 6 1026.2 1026.2 0.2
17/09:00pm 11.8 10.3 10.4 91 0.7 NNW 9 11 5 6 1026.1 1026.1 0.2
17/08:30pm 11.8 10.3 10.4 91 0.7 N 9 13 5 7 1026.1 1026.1 0.2
17/08:00pm 11.6 10.3 10.0 90 0.8 N 7 9 4 5 1026.1 1026.1 0.2
17/07:30pm 11.8 10.6 10.2 90 0.8 NNW 7 9 4 5 1026.2 1026.2 0.2
17/07:00pm 11.5 9.8 9.8 89 0.9 NW 9 11 5 6 1026.1 1026.1 0.2
17/06:30pm 12.4 10.1 10.5 88 1.0 NW 13 15 7 8 1025.9 1025.9 0.2
17/06:00pm 13.0 11.5 10.4 84 1.3 NW 9 11 5 6 1025.7 1025.7 0.2
17/05:30pm 13.0 10.6 10.0 82 1.5 W 13 13 7 7 1025.5 1025.5 0.2
17/05:00pm 13.8 11.9 10.4 80 1.8 W 11 13 6 7 1025.4 1025.4 0.2
17/04:30pm 14.8 12.8 11.4 80 1.8 WSW 13 17 7 9 1025.4 1025.4 0.2

Other formats

Comma delimited format used in spreadsheet applications
http://www.bom.gov.au/fwo/IDS60801/IDS60801.94820.axf

JavaScript Object Notation format (JSON) in row-major order
http://www.bom.gov.au/fwo/IDS60801/IDS60801.94820.json

Data quality

Most of these data are generated automatically and are frequently updated. Quality checks on data are not normally performed. It is possible for incorrect values to appear. Refer to information at About Latest Weather Observations and please check the disclaimer before using these data.